createdAt,value
2018-09-14T00:00:35.921Z,18.94
2018-09-14T00:03:12.228Z,18.93
2018-09-14T00:05:47.116Z,18.90
2018-09-14T00:08:21.932Z,18.88
2018-09-14T00:10:56.376Z,18.93
2018-09-14T00:13:31.013Z,19.06
2018-09-14T00:16:06.187Z,19.03
2018-09-14T00:18:40.954Z,19.04
2018-09-14T00:21:15.668Z,18.98
2018-09-14T00:23:50.061Z,18.88
2018-09-14T00:26:24.397Z,18.91
2018-09-14T00:28:59.447Z,18.90
2018-09-14T00:31:33.799Z,18.77
2018-09-14T00:34:08.193Z,18.75
2018-09-14T00:36:42.928Z,18.83
2018-09-14T00:39:17.708Z,18.80
2018-09-14T00:41:52.537Z,18.77
2018-09-14T00:44:27.105Z,18.75
2018-09-14T00:47:01.868Z,18.76
2018-09-14T00:49:36.140Z,18.77
2018-09-14T00:52:10.600Z,18.73
2018-09-14T00:54:45.682Z,18.67
2018-09-14T00:57:20.266Z,18.57
2018-09-14T00:59:54.616Z,18.57
2018-09-14T01:02:51.199Z,18.55
2018-09-14T01:05:26.388Z,18.45
2018-09-14T01:08:01.047Z,18.50
2018-09-14T01:10:35.636Z,18.48
2018-09-14T01:13:10.138Z,18.40
2018-09-14T01:15:44.952Z,18.41
2018-09-14T01:18:20.129Z,18.24
2018-09-14T01:20:55.252Z,18.27
2018-09-14T01:23:29.728Z,18.23
2018-09-14T01:26:04.445Z,18.21
2018-09-14T01:28:38.772Z,17.96
2018-09-14T01:31:13.231Z,17.83
2018-09-14T01:33:47.844Z,17.92
2018-09-14T01:36:22.212Z,17.96
2018-09-14T01:38:56.524Z,17.93
2018-09-14T01:41:30.995Z,17.87
2018-09-14T01:44:05.630Z,17.70
2018-09-14T01:46:40.759Z,17.63
2018-09-14T01:49:15.265Z,17.52
2018-09-14T01:51:49.867Z,17.58
2018-09-14T01:54:25.193Z,17.63
2018-09-14T01:56:59.620Z,17.62
2018-09-14T01:59:34.323Z,17.69
2018-09-14T02:02:09.036Z,17.68
2018-09-14T02:04:43.522Z,17.76
2018-09-14T02:07:17.859Z,17.72
2018-09-14T02:09:52.372Z,17.68
2018-09-14T02:12:26.966Z,17.73
2018-09-14T02:15:01.468Z,17.61
2018-09-14T02:17:35.828Z,17.51
2018-09-14T02:20:10.297Z,17.30
2018-09-14T02:22:45.025Z,17.14
2018-09-14T02:25:20.015Z,17.20
2018-09-14T02:27:54.459Z,17.10
2018-09-14T02:30:28.989Z,17.13
2018-09-14T02:33:03.878Z,17.04
2018-09-14T02:35:38.352Z,17.08
2018-09-14T02:38:12.737Z,17.02
2018-09-14T02:40:47.201Z,16.98
2018-09-14T02:43:21.697Z,16.98
2018-09-14T02:45:56.213Z,16.96
2018-09-14T02:48:30.637Z,16.89
2018-09-14T02:51:05.556Z,16.83
2018-09-14T02:53:40.141Z,16.78
2018-09-14T02:56:14.888Z,16.86
2018-09-14T02:58:49.658Z,16.76
2018-09-14T03:01:24.137Z,16.75
2018-09-14T03:03:58.788Z,16.69
2018-09-14T03:06:33.261Z,16.79
2018-09-14T03:09:08.385Z,16.82
2018-09-14T03:11:43.116Z,16.76
2018-09-14T03:14:17.833Z,16.79
2018-09-14T03:16:52.348Z,16.68
2018-09-14T03:19:26.973Z,16.67
2018-09-14T03:22:01.461Z,16.62
2018-09-14T03:24:35.927Z,16.65
2018-09-14T03:27:10.456Z,16.64
2018-09-14T03:29:44.956Z,16.61
2018-09-14T03:32:19.338Z,16.54
2018-09-14T03:34:54.071Z,16.33
2018-09-14T03:37:28.524Z,16.23
2018-09-14T03:40:23.597Z,16.14
2018-09-14T03:42:58.218Z,16.23
2018-09-14T03:45:32.703Z,16.21
2018-09-14T03:48:07.776Z,16.34
2018-09-14T03:50:42.301Z,16.32
2018-09-14T03:53:16.769Z,16.37
2018-09-14T03:55:51.385Z,16.30
2018-09-14T03:58:26.040Z,16.30
2018-09-14T04:01:00.596Z,16.27
2018-09-14T04:03:34.909Z,16.19
2018-09-14T04:06:09.188Z,16.27
2018-09-14T04:08:43.624Z,16.17
2018-09-14T04:11:17.935Z,16.11
2018-09-14T04:13:52.254Z,16.08
2018-09-14T04:16:26.548Z,16.06
2018-09-14T04:19:03.577Z,16.11
2018-09-14T04:21:38.388Z,16.10
2018-09-14T04:24:12.894Z,16.12
2018-09-14T04:26:47.153Z,16.14
2018-09-14T04:29:21.523Z,16.21
2018-09-14T04:31:56.051Z,16.22
2018-09-14T04:34:30.561Z,16.27
2018-09-14T04:37:05.203Z,16.25
2018-09-14T04:39:39.935Z,16.22
2018-09-14T04:42:14.711Z,16.32
2018-09-14T04:44:49.132Z,16.27
2018-09-14T04:47:23.515Z,16.24
2018-09-14T04:49:58.099Z,16.25
2018-09-14T04:52:33.100Z,16.29
2018-09-14T04:55:07.794Z,16.20
2018-09-14T04:57:42.432Z,16.22
2018-09-14T05:00:17.258Z,16.26
2018-09-14T05:02:52.063Z,16.20
2018-09-14T05:05:26.493Z,16.29
2018-09-14T05:08:00.998Z,16.30
2018-09-14T05:10:35.721Z,16.18
2018-09-14T05:13:10.875Z,16.32
2018-09-14T05:15:45.416Z,16.32
2018-09-14T05:18:19.940Z,16.34
2018-09-14T05:20:54.467Z,16.23
2018-09-14T05:23:29.045Z,16.31
2018-09-14T05:26:03.776Z,16.27
2018-09-14T05:28:38.445Z,16.36
2018-09-14T05:31:12.989Z,16.37
2018-09-14T05:33:47.384Z,16.36
2018-09-14T05:36:21.722Z,16.41
2018-09-14T05:38:56.190Z,16.41
2018-09-14T05:41:30.649Z,16.47
2018-09-14T05:44:06.006Z,16.48
2018-09-14T05:46:40.712Z,16.52
2018-09-14T05:49:15.141Z,16.44
2018-09-14T05:51:49.840Z,16.49
2018-09-14T05:54:24.291Z,16.48
2018-09-14T05:56:59.328Z,16.53
2018-09-14T05:59:33.729Z,16.57
2018-09-14T06:02:08.920Z,16.57
2018-09-14T06:04:43.369Z,16.70
2018-09-14T06:07:18.080Z,16.70
2018-09-14T06:09:52.495Z,16.70
2018-09-14T06:12:27.136Z,16.77
2018-09-14T06:15:01.893Z,16.79
2018-09-14T06:17:36.711Z,16.86
2018-09-14T06:20:11.036Z,16.80
2018-09-14T06:22:45.729Z,16.78
2018-09-14T06:25:20.472Z,16.74
2018-09-14T06:27:55.109Z,16.73
2018-09-14T06:30:29.571Z,16.76
2018-09-14T06:33:04.173Z,16.76
2018-09-14T06:35:38.668Z,16.76
2018-09-14T06:38:12.992Z,16.80
2018-09-14T06:40:47.584Z,16.78
2018-09-14T06:43:22.524Z,16.75
2018-09-14T06:45:57.004Z,16.80
2018-09-14T06:48:31.580Z,16.87
2018-09-14T06:51:06.272Z,16.85
2018-09-14T06:53:40.665Z,16.90
2018-09-14T06:56:15.755Z,16.88
2018-09-14T06:58:50.337Z,16.88
2018-09-14T07:01:24.756Z,16.89
2018-09-14T07:03:59.565Z,16.92
2018-09-14T07:06:34.348Z,16.96
2018-09-14T07:09:11.116Z,16.98
2018-09-14T07:11:46.054Z,17.00
2018-09-14T07:14:21.682Z,17.01
2018-09-14T07:16:57.174Z,17.04
2018-09-14T07:19:38.285Z,17.02
2018-09-14T07:22:16.554Z,17.05
2018-09-14T07:24:51.405Z,17.09
2018-09-14T07:27:25.868Z,17.07
2018-09-14T07:30:00.312Z,17.14
2018-09-14T07:32:34.976Z,17.17
2018-09-14T07:35:09.605Z,17.21
2018-09-14T07:37:43.928Z,17.25
2018-09-14T07:40:25.868Z,17.26
2018-09-14T07:43:00.612Z,17.26
2018-09-14T07:45:35.009Z,17.23
2018-09-14T07:48:10.161Z,17.28
2018-09-14T07:50:44.859Z,17.28
2018-09-14T07:53:19.595Z,17.27
2018-09-14T07:55:54.595Z,17.21
2018-09-14T07:58:31.794Z,17.20
2018-09-14T08:01:07.104Z,17.33
2018-09-14T08:03:42.010Z,17.38
2018-09-14T08:06:16.902Z,17.45
2018-09-14T08:08:51.881Z,17.59
2018-09-14T08:11:26.852Z,17.72
2018-09-14T08:14:03.231Z,17.79
2018-09-14T08:16:39.653Z,17.89
2018-09-14T08:19:14.799Z,17.96
2018-09-14T08:21:49.603Z,17.91
2018-09-14T08:24:27.728Z,17.88
2018-09-14T08:27:03.061Z,17.97
2018-09-14T08:29:38.908Z,18.06
2018-09-14T08:32:13.998Z,18.15
2018-09-14T08:34:48.776Z,18.20
2018-09-14T08:37:23.197Z,18.31
2018-09-14T08:39:57.679Z,18.49
2018-09-14T08:42:32.830Z,18.71
2018-09-14T08:45:07.364Z,18.89
2018-09-14T08:47:42.514Z,19.02
2018-09-14T08:50:17.191Z,19.09
2018-09-14T08:52:51.993Z,19.15
2018-09-14T08:55:26.284Z,19.23
2018-09-14T08:58:00.942Z,19.32
2018-09-14T09:00:41.464Z,19.40
2018-09-14T09:03:16.060Z,19.50
2018-09-14T09:05:50.562Z,19.53
2018-09-14T09:08:24.992Z,19.61
2018-09-14T09:10:59.537Z,19.79
2018-09-14T09:13:34.101Z,19.93
2018-09-14T09:16:10.673Z,20.08
2018-09-14T09:18:45.237Z,20.14
2018-09-14T09:21:19.893Z,20.21
2018-09-14T09:23:54.425Z,20.24
2018-09-14T09:26:29.868Z,20.35
2018-09-14T09:29:05.180Z,20.42
2018-09-14T09:31:39.661Z,20.52
2018-09-14T09:34:14.090Z,20.56
2018-09-14T09:36:48.721Z,20.63
2018-09-14T09:39:23.044Z,20.69
2018-09-14T09:41:58.620Z,20.76
2018-09-14T09:44:32.887Z,20.72
2018-09-14T09:47:07.447Z,20.76
2018-09-14T09:49:42.109Z,20.93
2018-09-14T09:52:16.786Z,21.05
2018-09-14T09:54:51.299Z,21.03
2018-09-14T09:57:25.733Z,20.99
2018-09-14T10:00:00.987Z,21.13
2018-09-14T10:02:38.939Z,21.10
2018-09-14T10:05:19.036Z,21.25
2018-09-14T10:07:53.583Z,21.61
2018-09-14T10:10:27.908Z,21.76
2018-09-14T10:13:02.671Z,21.65
2018-09-14T10:15:37.556Z,21.74
2018-09-14T10:18:11.907Z,22.12
2018-09-14T10:20:46.747Z,22.57
2018-09-14T10:23:21.779Z,22.63
2018-09-14T10:25:56.608Z,22.85
2018-09-14T10:28:30.967Z,23.10
2018-09-14T10:31:06.072Z,23.08
2018-09-14T10:33:40.414Z,23.08
2018-09-14T10:36:14.771Z,22.94
2018-09-14T10:38:49.667Z,22.70
2018-09-14T10:41:24.565Z,22.63
2018-09-14T10:43:59.364Z,22.56
2018-09-14T10:46:34.163Z,22.76
2018-09-14T10:49:08.654Z,23.08
2018-09-14T10:51:43.288Z,23.21
2018-09-14T10:54:17.688Z,23.37
2018-09-14T10:56:52.114Z,23.09
2018-09-14T10:59:26.759Z,22.74
2018-09-14T11:02:01.799Z,22.53
2018-09-14T11:04:36.605Z,22.31
2018-09-14T11:07:11.631Z,22.05
2018-09-14T11:09:46.376Z,21.96
2018-09-14T11:12:21.588Z,21.75
2018-09-14T11:14:55.915Z,21.63
2018-09-14T11:17:30.527Z,21.69
2018-09-14T11:20:05.208Z,21.73
2018-09-14T11:22:39.921Z,21.91
2018-09-14T11:25:15.228Z,22.15
2018-09-14T11:27:49.937Z,22.16
2018-09-14T11:30:24.577Z,22.19
2018-09-14T11:32:59.412Z,22.22
2018-09-14T11:35:34.339Z,22.39
2018-09-14T11:38:09.005Z,22.51
2018-09-14T11:40:43.609Z,22.61
2018-09-14T11:43:18.175Z,22.56
2018-09-14T11:45:52.700Z,22.46
2018-09-14T11:48:27.485Z,22.38
2018-09-14T11:51:01.956Z,22.36
2018-09-14T11:53:36.476Z,22.36
2018-09-14T11:56:11.684Z,22.50
2018-09-14T11:58:45.994Z,22.59
2018-09-14T12:01:20.523Z,22.71
2018-09-14T12:03:55.563Z,22.94
2018-09-14T12:06:30.371Z,23.56
2018-09-14T12:09:07.400Z,23.89
2018-09-14T12:11:42.364Z,24.23
2018-09-14T12:14:16.903Z,24.66
2018-09-14T12:16:51.364Z,24.95
2018-09-14T12:19:26.360Z,25.43
2018-09-14T12:22:01.134Z,25.82
2018-09-14T12:24:35.576Z,25.95
2018-09-14T12:27:10.237Z,26.06
2018-09-14T12:29:44.652Z,25.58
2018-09-14T12:32:19.841Z,24.70
2018-09-14T12:34:54.591Z,23.91
2018-09-14T12:37:28.944Z,22.96
2018-09-14T12:40:04.452Z,22.25
2018-09-14T12:42:40.088Z,21.88
2018-09-14T12:45:14.553Z,21.80
2018-09-14T12:47:48.859Z,22.10
2018-09-14T12:50:23.276Z,22.09
2018-09-14T12:52:57.560Z,22.04
2018-09-14T12:55:32.384Z,21.93
2018-09-14T12:58:07.384Z,21.73
2018-09-14T13:00:42.672Z,22.12
2018-09-14T13:03:17.039Z,22.32
2018-09-14T13:05:51.711Z,22.75
2018-09-14T13:08:26.227Z,23.03
2018-09-14T13:11:00.761Z,22.93
2018-09-14T13:13:35.316Z,22.88
2018-09-14T13:16:10.452Z,22.77
2018-09-14T13:18:45.095Z,22.70
2018-09-14T13:21:19.624Z,22.73
2018-09-14T13:23:54.992Z,22.85
2018-09-14T13:26:29.643Z,22.80
2018-09-14T13:29:04.056Z,22.87
2018-09-14T13:31:39.075Z,22.92
2018-09-14T13:34:13.634Z,22.98
2018-09-14T13:36:48.597Z,23.09
2018-09-14T13:39:23.761Z,23.20
2018-09-14T13:41:58.529Z,23.24
2018-09-14T13:44:33.885Z,23.25
2018-09-14T13:47:08.900Z,23.20
2018-09-14T13:49:43.344Z,23.32
2018-09-14T13:52:18.175Z,23.62
2018-09-14T13:54:52.610Z,23.96
2018-09-14T13:57:27.092Z,24.09
2018-09-14T14:00:02.741Z,24.13
2018-09-14T14:02:37.415Z,24.00
2018-09-14T14:05:12.735Z,23.83
2018-09-14T14:07:47.112Z,23.77
2018-09-14T14:10:22.326Z,23.52
2018-09-14T14:12:57.032Z,23.03
2018-09-14T14:15:31.631Z,22.89
2018-09-14T14:18:06.220Z,22.92
2018-09-14T14:20:41.006Z,22.80
2018-09-14T14:23:17.842Z,22.80
2018-09-14T14:25:53.087Z,22.89
2018-09-14T14:28:28.093Z,23.02
2018-09-14T14:31:03.700Z,23.11
2018-09-14T14:33:38.185Z,23.20
2018-09-14T14:36:12.892Z,23.28
2018-09-14T14:38:47.517Z,23.41
2018-09-14T14:41:22.425Z,23.49
2018-09-14T14:43:57.254Z,23.53
2018-09-14T14:46:31.536Z,23.47
2018-09-14T14:49:06.257Z,23.28
2018-09-14T14:51:40.818Z,22.96
2018-09-14T14:54:15.440Z,22.82
2018-09-14T14:56:50.016Z,22.80
2018-09-14T14:59:24.944Z,22.75
2018-09-14T15:01:59.662Z,22.84
2018-09-14T15:04:34.620Z,22.84
2018-09-14T15:07:09.436Z,22.77
2018-09-14T15:09:44.382Z,22.70
2018-09-14T15:12:18.847Z,22.48
2018-09-14T15:14:53.415Z,22.49
2018-09-14T15:17:28.008Z,22.44
2018-09-14T15:20:02.661Z,22.37
2018-09-14T15:22:37.868Z,22.25
2018-09-14T15:25:12.192Z,22.18
2018-09-14T15:27:46.678Z,22.16
2018-09-14T15:30:21.928Z,22.24
2018-09-14T15:32:56.770Z,22.29
2018-09-14T15:35:31.273Z,22.41
2018-09-14T15:38:05.927Z,22.82
2018-09-14T15:40:40.412Z,23.20
2018-09-14T15:43:14.791Z,23.34
2018-09-14T15:45:49.639Z,23.49
2018-09-14T15:48:24.045Z,23.62
2018-09-14T15:50:58.391Z,23.63
2018-09-14T15:53:33.671Z,23.65
2018-09-14T15:56:08.500Z,23.59
2018-09-14T15:58:43.214Z,23.43
2018-09-14T16:01:17.753Z,23.21
2018-09-14T16:03:52.430Z,23.05
2018-09-14T16:06:27.177Z,22.95
2018-09-14T16:09:02.292Z,22.89
2018-09-14T16:11:37.803Z,22.86
2018-09-14T16:14:12.255Z,22.76
2018-09-14T16:16:46.571Z,22.62
2018-09-14T16:19:21.131Z,22.41
2018-09-14T16:21:55.607Z,22.16
2018-09-14T16:24:30.072Z,21.92
2018-09-14T16:27:04.758Z,21.67
2018-09-14T16:29:39.244Z,21.46
2018-09-14T16:32:14.027Z,21.27
2018-09-14T16:34:48.333Z,21.07
2018-09-14T16:37:22.635Z,20.92
2018-09-14T16:39:57.287Z,20.71
2018-09-14T16:42:31.813Z,20.56
2018-09-14T16:45:07.019Z,20.43
2018-09-14T16:47:41.330Z,20.32
2018-09-14T16:50:16.360Z,20.18
2018-09-14T16:52:51.258Z,20.08
2018-09-14T16:55:25.739Z,19.92
2018-09-14T16:58:00.592Z,19.77
2018-09-14T17:00:35.199Z,19.71
2018-09-14T17:03:10.152Z,19.59
2018-09-14T17:05:44.571Z,19.50
2018-09-14T17:08:18.955Z,19.39
2018-09-14T17:10:53.542Z,19.25
2018-09-14T17:13:27.965Z,19.15
2018-09-14T17:16:03.439Z,19.06
2018-09-14T17:18:39.361Z,18.97
2018-09-14T17:21:14.532Z,18.89
2018-09-14T17:23:49.732Z,18.80
2018-09-14T17:26:24.132Z,18.73
2018-09-14T17:28:58.594Z,18.61
2018-09-14T17:31:33.599Z,18.49
2018-09-14T17:34:08.116Z,18.39
2018-09-14T17:36:42.584Z,18.43
2018-09-14T17:39:16.957Z,18.41
2018-09-14T17:41:51.380Z,18.29
2018-09-14T17:44:26.071Z,18.26
2018-09-14T17:47:00.699Z,18.17
2018-09-14T17:49:35.040Z,18.10
2018-09-14T17:52:09.960Z,17.99
2018-09-14T17:54:44.644Z,17.89
2018-09-14T17:57:19.308Z,17.82
2018-09-14T17:59:54.044Z,17.72
2018-09-14T18:02:28.487Z,17.65
2018-09-14T18:05:03.387Z,17.57
2018-09-14T18:07:38.471Z,17.53
2018-09-14T18:10:13.087Z,17.50
2018-09-14T18:12:48.059Z,17.46
2018-09-14T18:15:22.886Z,17.44
2018-09-14T18:17:57.360Z,17.43
2018-09-14T18:20:31.972Z,17.38
2018-09-14T18:23:07.243Z,17.33
2018-09-14T18:25:41.979Z,17.25
2018-09-14T18:28:16.868Z,17.24
2018-09-14T18:30:51.655Z,17.27
2018-09-14T18:33:26.349Z,17.30
2018-09-14T18:36:00.601Z,17.35
2018-09-14T18:38:36.916Z,17.51
2018-09-14T18:41:11.619Z,17.54
2018-09-14T18:43:46.148Z,17.59
2018-09-14T18:46:20.707Z,17.63
2018-09-14T18:48:55.248Z,17.60
2018-09-14T18:51:29.556Z,17.63
2018-09-14T18:54:04.507Z,17.58
2018-09-14T18:56:39.248Z,17.51
2018-09-14T18:59:14.688Z,17.44
2018-09-14T19:01:49.112Z,17.35
2018-09-14T19:04:24.040Z,17.31
2018-09-14T19:06:58.864Z,17.28
2018-09-14T19:09:33.351Z,17.21
2018-09-14T19:12:08.061Z,17.14
2018-09-14T19:14:42.720Z,17.10
2018-09-14T19:17:17.184Z,17.10
2018-09-14T19:19:52.074Z,17.11
2018-09-14T19:22:26.602Z,17.13
2018-09-14T19:25:01.445Z,17.12
2018-09-14T19:27:36.363Z,17.13
2018-09-14T19:30:10.696Z,17.16
2018-09-14T19:32:45.051Z,17.15
2018-09-14T19:35:19.667Z,17.11
2018-09-14T19:37:54.276Z,17.16
2018-09-14T19:40:29.071Z,17.16
2018-09-14T19:43:03.643Z,17.20
2018-09-14T19:45:38.530Z,17.20
2018-09-14T19:48:13.043Z,17.18
2018-09-14T19:50:48.867Z,17.24
2018-09-14T19:53:23.363Z,17.23
2018-09-14T19:55:59.273Z,17.18
2018-09-14T19:58:34.143Z,17.16
2018-09-14T20:01:10.851Z,17.21
2018-09-14T20:03:45.300Z,17.26
2018-09-14T20:06:19.972Z,17.26
2018-09-14T20:08:54.831Z,17.12
2018-09-14T20:11:29.572Z,17.01
2018-09-14T20:14:04.703Z,17.00
2018-09-14T20:16:39.683Z,16.98
2018-09-14T20:19:14.215Z,16.89
2018-09-14T20:21:49.383Z,16.89
2018-09-14T20:24:24.220Z,16.78
2018-09-14T20:26:58.603Z,16.77
2018-09-14T20:29:33.180Z,16.78
2018-09-14T20:32:08.035Z,16.69
2018-09-14T20:34:42.848Z,16.68
2018-09-14T20:37:18.334Z,16.72
2018-09-14T20:39:53.552Z,16.77
2018-09-14T20:42:28.059Z,16.73
2018-09-14T20:45:02.829Z,16.65
2018-09-14T20:47:37.199Z,16.60
2018-09-14T20:50:11.817Z,16.54
2018-09-14T20:55:26.072Z,16.46
2018-09-14T20:58:00.619Z,16.43
2018-09-14T21:00:35.164Z,16.40
2018-09-14T21:03:09.765Z,16.37
2018-09-14T21:05:44.260Z,16.37
2018-09-14T21:08:18.665Z,16.33
2018-09-14T21:10:53.496Z,16.26
2018-09-14T21:13:28.240Z,16.24
2018-09-14T21:16:02.652Z,16.15
2018-09-14T21:18:37.346Z,16.11
2018-09-14T21:21:12.379Z,16.17
2018-09-14T21:23:46.699Z,16.23
2018-09-14T21:26:21.719Z,16.20
2018-09-14T21:28:56.291Z,16.20
2018-09-14T21:31:30.909Z,16.09
2018-09-14T21:34:06.121Z,16.02
2018-09-14T21:36:40.408Z,15.98
2018-09-14T21:39:14.708Z,15.91
2018-09-14T21:41:49.476Z,15.85
2018-09-14T21:44:23.921Z,15.80
2018-09-14T21:46:58.271Z,15.90
2018-09-14T21:49:32.807Z,15.87
2018-09-14T21:52:07.488Z,15.86
2018-09-14T21:54:42.032Z,15.78
2018-09-14T21:57:16.340Z,15.71
2018-09-14T21:59:50.976Z,15.66
2018-09-14T22:02:25.916Z,15.66
2018-09-14T22:05:00.840Z,15.64
2018-09-14T22:07:35.171Z,15.57
2018-09-14T22:10:10.149Z,15.53
2018-09-14T22:12:44.527Z,15.46
2018-09-14T22:15:18.864Z,15.48
2018-09-14T22:17:53.492Z,15.43
2018-09-14T22:20:28.645Z,15.38
2018-09-14T22:23:03.404Z,15.38
2018-09-14T22:25:38.276Z,15.45
2018-09-14T22:28:12.884Z,15.43
2018-09-14T22:30:47.432Z,15.42
2018-09-14T22:33:21.759Z,15.43
2018-09-14T22:35:56.394Z,15.34
2018-09-14T22:38:31.293Z,15.26
2018-09-14T22:41:05.642Z,15.23
2018-09-14T22:43:39.952Z,15.26
2018-09-14T22:46:15.116Z,15.23
2018-09-14T22:48:49.812Z,15.22
2018-09-14T22:51:24.397Z,15.23
2018-09-14T22:53:59.072Z,15.29
2018-09-14T22:56:33.504Z,15.28
2018-09-14T22:59:08.789Z,15.26
2018-09-14T23:01:43.435Z,15.21
2018-09-14T23:04:17.907Z,15.21
2018-09-14T23:06:52.640Z,15.25
2018-09-14T23:09:27.145Z,15.20
2018-09-14T23:12:02.775Z,15.16
2018-09-14T23:14:37.847Z,15.16
2018-09-14T23:17:13.416Z,15.18
2018-09-14T23:19:48.120Z,15.21
2018-09-14T23:22:22.796Z,15.18
2018-09-14T23:24:57.539Z,15.17
2018-09-14T23:27:31.961Z,15.22
2018-09-14T23:30:07.591Z,15.26
2018-09-14T23:32:42.391Z,15.25
2018-09-14T23:35:17.335Z,15.32
2018-09-14T23:37:52.100Z,15.32
2018-09-14T23:40:26.510Z,15.34
2018-09-14T23:43:00.933Z,15.39
2018-09-14T23:45:35.871Z,15.44
2018-09-14T23:48:10.536Z,15.42
2018-09-14T23:50:45.456Z,15.44
2018-09-14T23:53:19.801Z,15.52
2018-09-14T23:55:54.378Z,15.55
2018-09-14T23:58:28.925Z,15.62
